sensor_id;sensor_type;location;lat;lon;timestamp;temperature;humidity
16838;DHT22;19510;54.486;9.046;2022-09-09T00:02:04;15.10;99.90
16838;DHT22;19510;54.486;9.046;2022-09-09T00:04:38;15.00;99.90
16838;DHT22;19510;54.486;9.046;2022-09-09T00:12:56;15.00;99.90
16838;DHT22;19510;54.486;9.046;2022-09-09T00:18:37;14.90;99.90
16838;DHT22;19510;54.486;9.046;2022-09-09T00:23:38;14.90;99.90
16838;DHT22;19510;54.486;9.046;2022-09-09T00:28:52;15.00;99.90
16838;DHT22;19510;54.486;9.046;2022-09-09T00:31:28;15.00;99.90
16838;DHT22;19510;54.486;9.046;2022-09-09T00:33:56;15.00;99.90
16838;DHT22;19510;54.486;9.046;2022-09-09T00:36:27;15.00;99.90
16838;DHT22;19510;54.486;9.046;2022-09-09T00:38:58;15.00;99.90
16838;DHT22;19510;54.486;9.046;2022-09-09T00:41:32;14.90;99.90
16838;DHT22;19510;54.486;9.046;2022-09-09T00:57:35;15.10;99.90
16838;DHT22;19510;54.486;9.046;2022-09-09T01:00:24;15.10;99.90
16838;DHT22;19510;54.486;9.046;2022-09-09T01:08:32;15.10;99.90
16838;DHT22;19510;54.486;9.046;2022-09-09T01:11:00;15.20;99.90
16838;DHT22;19510;54.486;9.046;2022-09-09T01:13:36;15.10;99.90
16838;DHT22;19510;54.486;9.046;2022-09-09T01:16:10;15.20;99.90
16838;DHT22;19510;54.486;9.046;2022-09-09T01:18:44;15.20;99.90
16838;DHT22;19510;54.486;9.046;2022-09-09T01:26:44;15.20;99.90
16838;DHT22;19510;54.486;9.046;2022-09-09T01:29:18;15.20;99.90
16838;DHT22;19510;54.486;9.046;2022-09-09T01:32:37;15.20;99.90
16838;DHT22;19510;54.486;9.046;2022-09-09T01:34:51;15.20;99.90
16838;DHT22;19510;54.486;9.046;2022-09-09T01:37:17;15.20;99.90
16838;DHT22;19510;54.486;9.046;2022-09-09T01:39:47;15.30;99.90
16838;DHT22;19510;54.486;9.046;2022-09-09T01:42:15;15.30;99.90
16838;DHT22;19510;54.486;9.046;2022-09-09T01:44:41;15.30;99.90
16838;DHT22;19510;54.486;9.046;2022-09-09T01:47:07;15.40;99.90
16838;DHT22;19510;54.486;9.046;2022-09-09T01:49:35;15.40;99.90
16838;DHT22;19510;54.486;9.046;2022-09-09T01:52:05;15.40;99.90
16838;DHT22;19510;54.486;9.046;2022-09-09T01:54:31;15.40;99.90
16838;DHT22;19510;54.486;9.046;2022-09-09T01:57:13;15.50;99.90
16838;DHT22;19510;54.486;9.046;2022-09-09T02:00:02;15.50;99.90
16838;DHT22;19510;54.486;9.046;2022-09-09T02:02:37;15.50;99.90
16838;DHT22;19510;54.486;9.046;2022-09-09T02:08:25;15.60;99.90
16838;DHT22;19510;54.486;9.046;2022-09-09T02:10:59;15.60;99.90
16838;DHT22;19510;54.486;9.046;2022-09-09T02:13:32;15.60;99.90
16838;DHT22;19510;54.486;9.046;2022-09-09T02:16:07;15.70;99.90
16838;DHT22;19510;54.486;9.046;2022-09-09T02:21:29;15.70;99.90
16838;DHT22;19510;54.486;9.046;2022-09-09T02:23:58;15.70;99.90
16838;DHT22;19510;54.486;9.046;2022-09-09T02:26:25;15.80;99.90
16838;DHT22;19510;54.486;9.046;2022-09-09T02:28:54;15.70;99.90
16838;DHT22;19510;54.486;9.046;2022-09-09T02:31:22;15.70;99.90
16838;DHT22;19510;54.486;9.046;2022-09-09T02:33:59;15.70;99.90
16838;DHT22;19510;54.486;9.046;2022-09-09T02:36:28;15.70;99.90
16838;DHT22;19510;54.486;9.046;2022-09-09T02:38:55;15.60;99.90
16838;DHT22;19510;54.486;9.046;2022-09-09T02:41:27;15.70;99.90
16838;DHT22;19510;54.486;9.046;2022-09-09T02:43:56;15.60;99.90
16838;DHT22;19510;54.486;9.046;2022-09-09T02:52:20;15.60;99.90
16838;DHT22;19510;54.486;9.046;2022-09-09T02:54:54;15.50;99.90
16838;DHT22;19510;54.486;9.046;2022-09-09T02:57:26;15.50;99.90
16838;DHT22;19510;54.486;9.046;2022-09-09T02:59:53;15.40;99.90
16838;DHT22;19510;54.486;9.046;2022-09-09T03:02:22;15.30;99.90
16838;DHT22;19510;54.486;9.046;2022-09-09T03:04:47;15.40;99.90
16838;DHT22;19510;54.486;9.046;2022-09-09T03:07:21;15.30;99.90
16838;DHT22;19510;54.486;9.046;2022-09-09T03:09:46;15.40;99.90
16838;DHT22;19510;54.486;9.046;2022-09-09T03:12:12;15.20;99.90
16838;DHT22;19510;54.486;9.046;2022-09-09T03:14:38;15.20;99.90
16838;DHT22;19510;54.486;9.046;2022-09-09T03:17:07;15.20;99.90
16838;DHT22;19510;54.486;9.046;2022-09-09T03:19:34;15.10;99.90
16838;DHT22;19510;54.486;9.046;2022-09-09T03:22:00;15.20;99.90
16838;DHT22;19510;54.486;9.046;2022-09-09T03:24:26;15.20;99.90
16838;DHT22;19510;54.486;9.046;2022-09-09T03:26:53;15.20;99.90
16838;DHT22;19510;54.486;9.046;2022-09-09T03:29:21;15.20;99.90
16838;DHT22;19510;54.486;9.046;2022-09-09T03:31:47;15.20;99.90
16838;DHT22;19510;54.486;9.046;2022-09-09T03:34:12;15.20;99.90
16838;DHT22;19510;54.486;9.046;2022-09-09T03:36:39;15.20;99.90
16838;DHT22;19510;54.486;9.046;2022-09-09T03:39:08;15.20;99.90
16838;DHT22;19510;54.486;9.046;2022-09-09T03:41:34;15.20;99.90
16838;DHT22;19510;54.486;9.046;2022-09-09T03:43:59;15.20;99.90
16838;DHT22;19510;54.486;9.046;2022-09-09T03:46:28;15.20;99.90
16838;DHT22;19510;54.486;9.046;2022-09-09T03:48:54;15.20;99.90
16838;DHT22;19510;54.486;9.046;2022-09-09T03:51:19;15.10;99.90
16838;DHT22;19510;54.486;9.046;2022-09-09T03:53:46;15.20;99.90
16838;DHT22;19510;54.486;9.046;2022-09-09T03:56:12;15.10;99.90
16838;DHT22;19510;54.486;9.046;2022-09-09T03:58:38;15.20;99.90
16838;DHT22;19510;54.486;9.046;2022-09-09T04:01:09;15.10;99.90
16838;DHT22;19510;54.486;9.046;2022-09-09T04:03:36;15.20;99.90
16838;DHT22;19510;54.486;9.046;2022-09-09T04:06:03;15.20;99.90
16838;DHT22;19510;54.486;9.046;2022-09-09T04:08:30;15.20;99.90
16838;DHT22;19510;54.486;9.046;2022-09-09T04:10:59;15.10;99.90
16838;DHT22;19510;54.486;9.046;2022-09-09T04:13:25;15.10;99.90
16838;DHT22;19510;54.486;9.046;2022-09-09T04:15:53;15.00;99.90
16838;DHT22;19510;54.486;9.046;2022-09-09T04:18:21;14.90;99.90
16838;DHT22;19510;54.486;9.046;2022-09-09T04:20:48;14.90;99.90
16838;DHT22;19510;54.486;9.046;2022-09-09T04:23:15;14.80;99.90
16838;DHT22;19510;54.486;9.046;2022-09-09T04:25:46;14.80;99.90
16838;DHT22;19510;54.486;9.046;2022-09-09T04:28:13;14.70;99.90
16838;DHT22;19510;54.486;9.046;2022-09-09T04:30:38;14.70;99.90
16838;DHT22;19510;54.486;9.046;2022-09-09T04:33:05;14.60;99.90
16838;DHT22;19510;54.486;9.046;2022-09-09T04:35:31;14.60;99.90
16838;DHT22;19510;54.486;9.046;2022-09-09T04:37:57;14.60;99.90
16838;DHT22;19510;54.486;9.046;2022-09-09T04:40:23;14.60;99.90
16838;DHT22;19510;54.486;9.046;2022-09-09T04:42:48;14.60;99.90
16838;DHT22;19510;54.486;9.046;2022-09-09T04:45:15;14.60;99.90
16838;DHT22;19510;54.486;9.046;2022-09-09T04:47:43;14.60;99.90
16838;DHT22;19510;54.486;9.046;2022-09-09T04:50:09;14.60;99.90
16838;DHT22;19510;54.486;9.046;2022-09-09T04:52:35;14.60;99.90
16838;DHT22;19510;54.486;9.046;2022-09-09T04:55:01;14.60;99.90
16838;DHT22;19510;54.486;9.046;2022-09-09T04:57:27;14.60;99.90
16838;DHT22;19510;54.486;9.046;2022-09-09T04:59:57;14.60;99.90
16838;DHT22;19510;54.486;9.046;2022-09-09T05:02:23;14.60;99.90
16838;DHT22;19510;54.486;9.046;2022-09-09T05:04:49;14.60;99.90
16838;DHT22;19510;54.486;9.046;2022-09-09T05:07:15;14.50;99.90
16838;DHT22;19510;54.486;9.046;2022-09-09T05:09:40;14.50;99.90
16838;DHT22;19510;54.486;9.046;2022-09-09T05:12:07;14.50;99.90
16838;DHT22;19510;54.486;9.046;2022-09-09T05:14:33;14.50;99.90
16838;DHT22;19510;54.486;9.046;2022-09-09T05:17:00;14.50;99.90
16838;DHT22;19510;54.486;9.046;2022-09-09T05:19:26;14.60;99.90
16838;DHT22;19510;54.486;9.046;2022-09-09T05:21:51;14.80;99.90
16838;DHT22;19510;54.486;9.046;2022-09-09T05:24:17;14.90;99.90
16838;DHT22;19510;54.486;9.046;2022-09-09T05:26:45;14.90;99.90
16838;DHT22;19510;54.486;9.046;2022-09-09T05:29:10;14.90;99.90
16838;DHT22;19510;54.486;9.046;2022-09-09T05:31:36;14.90;99.90
16838;DHT22;19510;54.486;9.046;2022-09-09T05:34:02;15.00;99.90
16838;DHT22;19510;54.486;9.046;2022-09-09T05:36:28;15.10;99.90
16838;DHT22;19510;54.486;9.046;2022-09-09T05:38:55;15.10;99.90
16838;DHT22;19510;54.486;9.046;2022-09-09T05:41:24;15.20;99.90
16838;DHT22;19510;54.486;9.046;2022-09-09T05:43:49;15.30;99.90
16838;DHT22;19510;54.486;9.046;2022-09-09T05:46:18;15.30;99.90
16838;DHT22;19510;54.486;9.046;2022-09-09T05:48:45;15.50;99.90
16838;DHT22;19510;54.486;9.046;2022-09-09T05:51:14;15.50;99.90
16838;DHT22;19510;54.486;9.046;2022-09-09T05:53:43;15.30;99.90
16838;DHT22;19510;54.486;9.046;2022-09-09T05:56:20;15.20;99.90
16838;DHT22;19510;54.486;9.046;2022-09-09T05:58:50;15.00;99.90
16838;DHT22;19510;54.486;9.046;2022-09-09T06:01:21;14.90;99.90
16838;DHT22;19510;54.486;9.046;2022-09-09T06:03:49;14.80;99.90
16838;DHT22;19510;54.486;9.046;2022-09-09T06:06:19;14.60;99.90
16838;DHT22;19510;54.486;9.046;2022-09-09T06:08:52;14.40;99.90
16838;DHT22;19510;54.486;9.046;2022-09-09T06:11:21;14.40;99.90
16838;DHT22;19510;54.486;9.046;2022-09-09T06:13:50;14.40;99.90
16838;DHT22;19510;54.486;9.046;2022-09-09T06:16:21;14.50;99.90
16838;DHT22;19510;54.486;9.046;2022-09-09T06:18:49;14.40;99.90
16838;DHT22;19510;54.486;9.046;2022-09-09T06:21:18;14.50;99.90
16838;DHT22;19510;54.486;9.046;2022-09-09T06:23:44;14.40;99.90
16838;DHT22;19510;54.486;9.046;2022-09-09T06:26:20;14.50;99.90
16838;DHT22;19510;54.486;9.046;2022-09-09T06:28:50;14.50;99.90
16838;DHT22;19510;54.486;9.046;2022-09-09T06:31:17;14.60;99.90
16838;DHT22;19510;54.486;9.046;2022-09-09T06:33:47;14.50;99.90
16838;DHT22;19510;54.486;9.046;2022-09-09T06:36:15;14.60;99.90
16838;DHT22;19510;54.486;9.046;2022-09-09T06:38:42;14.60;99.90
16838;DHT22;19510;54.486;9.046;2022-09-09T06:41:09;14.60;99.90
16838;DHT22;19510;54.486;9.046;2022-09-09T06:43:35;14.60;99.90
16838;DHT22;19510;54.486;9.046;2022-09-09T06:48:36;14.70;99.90
16838;DHT22;19510;54.486;9.046;2022-09-09T06:51:09;14.80;99.90
16838;DHT22;19510;54.486;9.046;2022-09-09T06:53:35;14.80;99.90
16838;DHT22;19510;54.486;9.046;2022-09-09T06:58:37;14.90;99.90
16838;DHT22;19510;54.486;9.046;2022-09-09T07:01:09;14.90;99.90
16838;DHT22;19510;54.486;9.046;2022-09-09T07:03:35;15.00;99.90
16838;DHT22;19510;54.486;9.046;2022-09-09T07:06:01;15.00;99.90
16838;DHT22;19510;54.486;9.046;2022-09-09T07:08:27;15.00;99.90
16838;DHT22;19510;54.486;9.046;2022-09-09T07:10:53;15.00;99.90
16838;DHT22;19510;54.486;9.046;2022-09-09T07:13:28;15.10;99.90
16838;DHT22;19510;54.486;9.046;2022-09-09T07:16:03;15.10;99.90
16838;DHT22;19510;54.486;9.046;2022-09-09T07:18:29;15.20;99.90
16838;DHT22;19510;54.486;9.046;2022-09-09T07:20:56;15.20;99.90
16838;DHT22;19510;54.486;9.046;2022-09-09T07:23:22;15.20;99.90
16838;DHT22;19510;54.486;9.046;2022-09-09T07:25:48;15.30;99.90
16838;DHT22;19510;54.486;9.046;2022-09-09T07:28:15;15.30;99.90
16838;DHT22;19510;54.486;9.046;2022-09-09T07:30:41;15.40;99.90
16838;DHT22;19510;54.486;9.046;2022-09-09T07:33:08;15.50;99.90
16838;DHT22;19510;54.486;9.046;2022-09-09T07:35:35;15.50;99.90
16838;DHT22;19510;54.486;9.046;2022-09-09T07:38:02;15.50;99.90
16838;DHT22;19510;54.486;9.046;2022-09-09T07:40:30;15.50;99.90
16838;DHT22;19510;54.486;9.046;2022-09-09T07:42:56;15.50;99.90
16838;DHT22;19510;54.486;9.046;2022-09-09T07:45:23;15.50;99.90
16838;DHT22;19510;54.486;9.046;2022-09-09T07:47:51;15.50;99.90
16838;DHT22;19510;54.486;9.046;2022-09-09T07:50:18;15.60;99.90
16838;DHT22;19510;54.486;9.046;2022-09-09T07:52:44;15.60;99.90
16838;DHT22;19510;54.486;9.046;2022-09-09T07:55:10;15.60;99.90
16838;DHT22;19510;54.486;9.046;2022-09-09T07:57:36;15.60;99.90
16838;DHT22;19510;54.486;9.046;2022-09-09T08:00:03;15.60;99.90
16838;DHT22;19510;54.486;9.046;2022-09-09T08:02:29;15.70;99.90
16838;DHT22;19510;54.486;9.046;2022-09-09T08:04:55;15.80;99.90
16838;DHT22;19510;54.486;9.046;2022-09-09T08:07:22;15.90;99.90
16838;DHT22;19510;54.486;9.046;2022-09-09T08:09:48;15.90;99.90
16838;DHT22;19510;54.486;9.046;2022-09-09T08:12:15;16.00;99.90
16838;DHT22;19510;54.486;9.046;2022-09-09T08:14:42;15.90;99.90
16838;DHT22;19510;54.486;9.046;2022-09-09T08:17:07;16.00;99.90
16838;DHT22;19510;54.486;9.046;2022-09-09T08:19:33;16.10;99.90
16838;DHT22;19510;54.486;9.046;2022-09-09T08:22:02;16.20;99.90
16838;DHT22;19510;54.486;9.046;2022-09-09T08:24:28;16.20;99.90
16838;DHT22;19510;54.486;9.046;2022-09-09T08:26:54;16.30;99.90
16838;DHT22;19510;54.486;9.046;2022-09-09T08:29:22;16.40;99.90
16838;DHT22;19510;54.486;9.046;2022-09-09T08:31:49;16.50;99.90
16838;DHT22;19510;54.486;9.046;2022-09-09T08:34:15;16.50;99.90
16838;DHT22;19510;54.486;9.046;2022-09-09T08:36:43;16.60;99.90
16838;DHT22;19510;54.486;9.046;2022-09-09T08:39:11;16.70;99.90
16838;DHT22;19510;54.486;9.046;2022-09-09T08:44:31;16.90;99.90
16838;DHT22;19510;54.486;9.046;2022-09-09T08:55:41;17.10;99.90
16838;DHT22;19510;54.486;9.046;2022-09-09T08:58:19;17.10;99.90
16838;DHT22;19510;54.486;9.046;2022-09-09T09:03:59;17.20;99.90
16838;DHT22;19510;54.486;9.046;2022-09-09T09:09:21;17.20;99.90
16838;DHT22;19510;54.486;9.046;2022-09-09T09:11:54;17.10;99.90
16838;DHT22;19510;54.486;9.046;2022-09-09T09:14:29;17.10;99.90
16838;DHT22;19510;54.486;9.046;2022-09-09T09:19:30;17.20;99.90
16838;DHT22;19510;54.486;9.046;2022-09-09T09:30:17;17.10;99.90
16838;DHT22;19510;54.486;9.046;2022-09-09T09:33:02;17.10;99.90
16838;DHT22;19510;54.486;9.046;2022-09-09T09:35:30;17.10;99.90
16838;DHT22;19510;54.486;9.046;2022-09-09T09:37:56;17.20;99.90
16838;DHT22;19510;54.486;9.046;2022-09-09T09:40:23;17.20;99.90
16838;DHT22;19510;54.486;9.046;2022-09-09T09:42:53;17.30;99.90
16838;DHT22;19510;54.486;9.046;2022-09-09T09:48:05;17.20;99.90
16838;DHT22;19510;54.486;9.046;2022-09-09T09:50:32;17.20;99.90
16838;DHT22;19510;54.486;9.046;2022-09-09T09:53:02;17.20;99.90
16838;DHT22;19510;54.486;9.046;2022-09-09T09:55:30;17.20;99.90
16838;DHT22;19510;54.486;9.046;2022-09-09T09:58:02;17.20;99.90
16838;DHT22;19510;54.486;9.046;2022-09-09T10:00:29;17.10;99.90
16838;DHT22;19510;54.486;9.046;2022-09-09T10:02:54;17.10;99.90
16838;DHT22;19510;54.486;9.046;2022-09-09T10:05:24;17.20;99.90
16838;DHT22;19510;54.486;9.046;2022-09-09T10:08:13;17.20;99.90
16838;DHT22;19510;54.486;9.046;2022-09-09T10:10:54;17.20;99.90
16838;DHT22;19510;54.486;9.046;2022-09-09T10:35:44;17.20;99.90
16838;DHT22;19510;54.486;9.046;2022-09-09T10:38:15;17.30;99.90
16838;DHT22;19510;54.486;9.046;2022-09-09T10:56:34;18.10;99.90
16838;DHT22;19510;54.486;9.046;2022-09-09T10:59:06;18.40;99.90
16838;DHT22;19510;54.486;9.046;2022-09-09T11:01:47;18.40;99.90
16838;DHT22;19510;54.486;9.046;2022-09-09T11:04:27;18.50;99.90
16838;DHT22;19510;54.486;9.046;2022-09-09T11:06:56;18.60;99.90
16838;DHT22;19510;54.486;9.046;2022-09-09T11:09:43;18.70;99.90
16838;DHT22;19510;54.486;9.046;2022-09-09T11:12:18;18.90;99.90
16838;DHT22;19510;54.486;9.046;2022-09-09T11:14:57;18.90;99.90
16838;DHT22;19510;54.486;9.046;2022-09-09T11:17:36;19.00;99.90
16838;DHT22;19510;54.486;9.046;2022-09-09T11:20:13;19.10;99.90
16838;DHT22;19510;54.486;9.046;2022-09-09T11:23:01;19.20;99.90
16838;DHT22;19510;54.486;9.046;2022-09-09T11:25:39;19.40;99.90
16838;DHT22;19510;54.486;9.046;2022-09-09T11:37:08;19.90;99.90
16838;DHT22;19510;54.486;9.046;2022-09-09T11:42:19;20.00;99.90
16838;DHT22;19510;54.486;9.046;2022-09-09T11:45:24;19.80;99.90
16838;DHT22;19510;54.486;9.046;2022-09-09T11:47:57;19.80;99.90
16838;DHT22;19510;54.486;9.046;2022-09-09T11:53:02;19.50;99.90
16838;DHT22;19510;54.486;9.046;2022-09-09T11:55:30;19.40;99.90
16838;DHT22;19510;54.486;9.046;2022-09-09T11:58:16;19.30;99.90
16838;DHT22;19510;54.486;9.046;2022-09-09T12:00:48;19.10;99.90
16838;DHT22;19510;54.486;9.046;2022-09-09T12:03:45;19.10;99.90
16838;DHT22;19510;54.486;9.046;2022-09-09T12:06:27;19.00;99.90
16838;DHT22;19510;54.486;9.046;2022-09-09T12:09:05;19.00;99.90
16838;DHT22;19510;54.486;9.046;2022-09-09T12:11:32;19.10;99.90
16838;DHT22;19510;54.486;9.046;2022-09-09T12:14:00;19.20;99.90
16838;DHT22;19510;54.486;9.046;2022-09-09T12:16:30;19.20;99.90
16838;DHT22;19510;54.486;9.046;2022-09-09T12:19:05;19.20;99.90
16838;DHT22;19510;54.486;9.046;2022-09-09T12:21:36;19.30;99.90
16838;DHT22;19510;54.486;9.046;2022-09-09T12:24:10;19.30;99.90
16838;DHT22;19510;54.486;9.046;2022-09-09T12:27:07;19.30;99.90
16838;DHT22;19510;54.486;9.046;2022-09-09T12:29:58;19.30;99.90
16838;DHT22;19510;54.486;9.046;2022-09-09T12:32:27;19.40;99.90
16838;DHT22;19510;54.486;9.046;2022-09-09T12:35:18;19.50;99.90
16838;DHT22;19510;54.486;9.046;2022-09-09T12:37:54;19.50;99.90
16838;DHT22;19510;54.486;9.046;2022-09-09T12:40:32;19.80;99.90
16838;DHT22;19510;54.486;9.046;2022-09-09T12:43:01;20.20;99.90
16838;DHT22;19510;54.486;9.046;2022-09-09T12:45:32;20.40;99.90
16838;DHT22;19510;54.486;9.046;2022-09-09T12:48:06;20.70;99.90
16838;DHT22;19510;54.486;9.046;2022-09-09T12:50:38;21.00;99.90
16838;DHT22;19510;54.486;9.046;2022-09-09T12:55:58;21.20;99.90
16838;DHT22;19510;54.486;9.046;2022-09-09T12:58:27;21.10;99.90
16838;DHT22;19510;54.486;9.046;2022-09-09T13:00:58;21.10;99.90
16838;DHT22;19510;54.486;9.046;2022-09-09T13:03:26;21.10;99.90
16838;DHT22;19510;54.486;9.046;2022-09-09T13:05:53;21.10;99.90
16838;DHT22;19510;54.486;9.046;2022-09-09T13:08:20;21.10;99.90
16838;DHT22;19510;54.486;9.046;2022-09-09T13:11:06;21.10;99.90
16838;DHT22;19510;54.486;9.046;2022-09-09T13:13:39;21.10;99.90
16838;DHT22;19510;54.486;9.046;2022-09-09T13:16:17;21.20;99.90
16838;DHT22;19510;54.486;9.046;2022-09-09T13:18:46;21.30;99.90
16838;DHT22;19510;54.486;9.046;2022-09-09T13:21:12;21.40;99.90
16838;DHT22;19510;54.486;9.046;2022-09-09T13:23:42;21.50;99.90
16838;DHT22;19510;54.486;9.046;2022-09-09T13:26:26;21.40;99.90
16838;DHT22;19510;54.486;9.046;2022-09-09T13:28:53;21.50;99.90
16838;DHT22;19510;54.486;9.046;2022-09-09T13:31:29;21.40;99.90
16838;DHT22;19510;54.486;9.046;2022-09-09T13:34:00;21.30;99.90
16838;DHT22;19510;54.486;9.046;2022-09-09T13:36:35;21.20;99.90
16838;DHT22;19510;54.486;9.046;2022-09-09T13:39:05;21.30;99.90
16838;DHT22;19510;54.486;9.046;2022-09-09T13:41:43;21.30;99.90
16838;DHT22;19510;54.486;9.046;2022-09-09T13:44:28;21.40;99.90
16838;DHT22;19510;54.486;9.046;2022-09-09T13:49:28;21.50;99.90
16838;DHT22;19510;54.486;9.046;2022-09-09T13:52:04;21.60;99.90
16838;DHT22;19510;54.486;9.046;2022-09-09T13:54:32;21.70;99.90
16838;DHT22;19510;54.486;9.046;2022-09-09T13:57:01;21.60;99.90
16838;DHT22;19510;54.486;9.046;2022-09-09T13:59:27;21.70;99.90
16838;DHT22;19510;54.486;9.046;2022-09-09T14:01:53;21.80;99.90
16838;DHT22;19510;54.486;9.046;2022-09-09T14:04:21;21.90;99.90
16838;DHT22;19510;54.486;9.046;2022-09-09T14:06:49;22.00;99.90
16838;DHT22;19510;54.486;9.046;2022-09-09T14:09:17;21.90;99.90
16838;DHT22;19510;54.486;9.046;2022-09-09T14:11:44;21.90;99.90
16838;DHT22;19510;54.486;9.046;2022-09-09T14:14:11;21.80;99.90
16838;DHT22;19510;54.486;9.046;2022-09-09T14:16:39;21.70;99.90
16838;DHT22;19510;54.486;9.046;2022-09-09T14:19:05;21.70;99.90
16838;DHT22;19510;54.486;9.046;2022-09-09T14:21:32;21.60;99.90
16838;DHT22;19510;54.486;9.046;2022-09-09T14:24:01;21.70;99.90
16838;DHT22;19510;54.486;9.046;2022-09-09T14:26:29;21.60;99.90
16838;DHT22;19510;54.486;9.046;2022-09-09T14:28:56;21.60;99.90
16838;DHT22;19510;54.486;9.046;2022-09-09T14:31:25;21.60;99.90
16838;DHT22;19510;54.486;9.046;2022-09-09T14:33:51;21.50;99.90
16838;DHT22;19510;54.486;9.046;2022-09-09T14:36:21;21.40;99.90
16838;DHT22;19510;54.486;9.046;2022-09-09T14:38:46;21.30;99.90
16838;DHT22;19510;54.486;9.046;2022-09-09T14:41:16;21.20;99.90
16838;DHT22;19510;54.486;9.046;2022-09-09T14:43:45;21.20;99.90
16838;DHT22;19510;54.486;9.046;2022-09-09T14:46:13;21.20;99.90
16838;DHT22;19510;54.486;9.046;2022-09-09T14:51:29;21.10;99.90
16838;DHT22;19510;54.486;9.046;2022-09-09T14:53:57;21.00;99.90
16838;DHT22;19510;54.486;9.046;2022-09-09T14:56:26;21.00;99.90
16838;DHT22;19510;54.486;9.046;2022-09-09T14:58:54;20.90;99.90
16838;DHT22;19510;54.486;9.046;2022-09-09T15:01:21;20.80;99.90
16838;DHT22;19510;54.486;9.046;2022-09-09T15:03:55;20.80;99.90
16838;DHT22;19510;54.486;9.046;2022-09-09T15:06:23;20.70;99.90
16838;DHT22;19510;54.486;9.046;2022-09-09T15:08:51;20.70;99.90
16838;DHT22;19510;54.486;9.046;2022-09-09T15:11:20;20.60;99.90
16838;DHT22;19510;54.486;9.046;2022-09-09T15:13:46;20.60;99.90
16838;DHT22;19510;54.486;9.046;2022-09-09T15:16:18;20.60;99.90
16838;DHT22;19510;54.486;9.046;2022-09-09T15:18:44;20.60;99.90
16838;DHT22;19510;54.486;9.046;2022-09-09T15:21:17;20.40;99.90
16838;DHT22;19510;54.486;9.046;2022-09-09T15:23:47;20.40;99.90
16838;DHT22;19510;54.486;9.046;2022-09-09T15:26:16;20.20;99.90
16838;DHT22;19510;54.486;9.046;2022-09-09T15:28:43;20.10;99.90
16838;DHT22;19510;54.486;9.046;2022-09-09T15:31:19;19.90;99.90
16838;DHT22;19510;54.486;9.046;2022-09-09T15:36:22;19.60;99.90
16838;DHT22;19510;54.486;9.046;2022-09-09T15:38:51;19.50;99.90
16838;DHT22;19510;54.486;9.046;2022-09-09T15:41:18;19.40;99.90
16838;DHT22;19510;54.486;9.046;2022-09-09T15:43:46;19.30;99.90
16838;DHT22;19510;54.486;9.046;2022-09-09T15:48:49;19.20;99.90
16838;DHT22;19510;54.486;9.046;2022-09-09T15:51:16;19.00;99.90
16838;DHT22;19510;54.486;9.046;2022-09-09T15:53:42;18.70;99.90
16838;DHT22;19510;54.486;9.046;2022-09-09T15:56:11;18.50;99.90
16838;DHT22;19510;54.486;9.046;2022-09-09T15:58:37;18.30;99.90
16838;DHT22;19510;54.486;9.046;2022-09-09T16:01:07;18.00;99.90
16838;DHT22;19510;54.486;9.046;2022-09-09T16:03:39;17.90;99.90
16838;DHT22;19510;54.486;9.046;2022-09-09T16:06:09;17.70;99.90
16838;DHT22;19510;54.486;9.046;2022-09-09T16:08:39;17.50;99.90
16838;DHT22;19510;54.486;9.046;2022-09-09T16:11:09;17.40;99.90
16838;DHT22;19510;54.486;9.046;2022-09-09T16:13:36;17.30;99.90
16838;DHT22;19510;54.486;9.046;2022-09-09T16:16:08;17.20;99.90
16838;DHT22;19510;54.486;9.046;2022-09-09T16:18:50;17.20;99.90
16838;DHT22;19510;54.486;9.046;2022-09-09T16:21:21;17.00;99.90
16838;DHT22;19510;54.486;9.046;2022-09-09T16:23:52;17.00;99.90
16838;DHT22;19510;54.486;9.046;2022-09-09T16:26:25;16.90;99.90
16838;DHT22;19510;54.486;9.046;2022-09-09T16:28:50;16.90;99.90
16838;DHT22;19510;54.486;9.046;2022-09-09T16:31:19;16.80;99.90
16838;DHT22;19510;54.486;9.046;2022-09-09T16:33:48;16.70;99.90
16838;DHT22;19510;54.486;9.046;2022-09-09T16:36:28;16.70;99.90
16838;DHT22;19510;54.486;9.046;2022-09-09T16:38:57;16.70;99.90
16838;DHT22;19510;54.486;9.046;2022-09-09T16:41:28;16.70;99.90
16838;DHT22;19510;54.486;9.046;2022-09-09T16:43:59;16.70;99.90
16838;DHT22;19510;54.486;9.046;2022-09-09T16:46:31;16.70;99.90
16838;DHT22;19510;54.486;9.046;2022-09-09T16:48:59;16.70;99.90
16838;DHT22;19510;54.486;9.046;2022-09-09T16:51:32;16.70;99.90
16838;DHT22;19510;54.486;9.046;2022-09-09T16:54:01;16.70;99.90
16838;DHT22;19510;54.486;9.046;2022-09-09T16:56:29;16.70;99.90
16838;DHT22;19510;54.486;9.046;2022-09-09T16:59:00;16.70;99.90
16838;DHT22;19510;54.486;9.046;2022-09-09T17:01:28;16.60;99.90
16838;DHT22;19510;54.486;9.046;2022-09-09T17:04:02;16.60;99.90
16838;DHT22;19510;54.486;9.046;2022-09-09T17:06:29;16.60;99.90
16838;DHT22;19510;54.486;9.046;2022-09-09T17:08:56;16.60;99.90
16838;DHT22;19510;54.486;9.046;2022-09-09T17:11:22;16.70;99.90
16838;DHT22;19510;54.486;9.046;2022-09-09T17:13:51;16.70;99.90
16838;DHT22;19510;54.486;9.046;2022-09-09T17:16:19;16.60;99.90
16838;DHT22;19510;54.486;9.046;2022-09-09T17:18:49;16.60;99.90
16838;DHT22;19510;54.486;9.046;2022-09-09T17:21:18;16.60;99.90
16838;DHT22;19510;54.486;9.046;2022-09-09T17:23:47;16.50;99.90
16838;DHT22;19510;54.486;9.046;2022-09-09T17:26:17;16.50;99.90
16838;DHT22;19510;54.486;9.046;2022-09-09T17:28:46;16.50;99.90
16838;DHT22;19510;54.486;9.046;2022-09-09T17:31:14;16.50;99.90
16838;DHT22;19510;54.486;9.046;2022-09-09T17:33:42;16.50;99.90
16838;DHT22;19510;54.486;9.046;2022-09-09T17:36:12;16.50;99.90
16838;DHT22;19510;54.486;9.046;2022-09-09T17:38:38;16.50;99.90
16838;DHT22;19510;54.486;9.046;2022-09-09T17:41:06;16.50;99.90
16838;DHT22;19510;54.486;9.046;2022-09-09T17:43:33;16.50;99.90
16838;DHT22;19510;54.486;9.046;2022-09-09T17:46:16;16.50;99.90
16838;DHT22;19510;54.486;9.046;2022-09-09T17:48:43;16.40;99.90
16838;DHT22;19510;54.486;9.046;2022-09-09T17:51:13;16.40;99.90
16838;DHT22;19510;54.486;9.046;2022-09-09T17:53:47;16.40;99.90
16838;DHT22;19510;54.486;9.046;2022-09-09T17:56:18;16.40;99.90
16838;DHT22;19510;54.486;9.046;2022-09-09T17:58:46;16.40;99.90
16838;DHT22;19510;54.486;9.046;2022-09-09T18:01:14;16.40;99.90
16838;DHT22;19510;54.486;9.046;2022-09-09T18:03:41;16.30;99.90
16838;DHT22;19510;54.486;9.046;2022-09-09T18:06:18;16.30;99.90
16838;DHT22;19510;54.486;9.046;2022-09-09T18:08:50;16.30;99.90
16838;DHT22;19510;54.486;9.046;2022-09-09T18:11:21;16.30;99.90
16838;DHT22;19510;54.486;9.046;2022-09-09T18:13:52;16.20;99.90
16838;DHT22;19510;54.486;9.046;2022-09-09T18:16:22;16.30;99.90
16838;DHT22;19510;54.486;9.046;2022-09-09T18:18:49;16.20;99.90
16838;DHT22;19510;54.486;9.046;2022-09-09T18:21:16;16.20;99.90